Time;durP1;ratioP1;P1;durP2;ratioP2;P2;SDS_P1;SDS_P2;PMS_P1;PMS_P2;Temp;Humidity;BMP_temperature;BMP_pressure;BME280_temperature;BME280_humidity;BME280_pressure;Samples;Min_cycle;Max_cycle;Signal;HPM_P1;HPM_P2
2023/04/08 00:01:57;;;;;;;16.63;3.70;;;;;;;9.55;29.94;100372.19;4995268;28;20179;-73
2023/04/08 00:04:25;;;;;;;6.27;3.50;;;;;;;9.45;30.42;100377.47;4979073;28;20045;-73
2023/04/08 00:06:51;;;;;;;6.90;3.27;;;;;;;9.47;30.13;100372.84;4978921;28;20046;-74
2023/04/08 00:09:16;;;;;;;7.90;3.50;;;;;;;9.55;29.98;100375.69;4995004;28;20053;-74
2023/04/08 00:11:42;;;;;;;7.13;3.50;;;;;;;9.48;30.38;100361.28;4979190;28;20033;-77
2023/04/08 00:14:08;;;;;;;9.67;3.80;;;;;;;9.51;30.10;100376.09;4995536;28;20480;-74
2023/04/08 00:16:34;;;;;;;8.53;3.53;;;;;;;9.08;30.91;100373.66;4978960;28;20046;-76
2023/04/08 00:19:00;;;;;;;8.10;3.50;;;;;;;9.22;30.88;100375.97;4997282;28;20051;-75
2023/04/08 00:21:26;;;;;;;8.07;3.40;;;;;;;9.26;30.65;100372.06;4981059;28;20064;-74
2023/04/08 00:23:52;;;;;;;8.60;3.60;;;;;;;9.33;30.63;100373.19;4981260;28;20053;-74
2023/04/08 00:26:18;;;;;;;11.43;3.63;;;;;;;9.12;30.79;100377.69;4964872;28;20106;-74
2023/04/08 00:28:45;;;;;;;6.10;3.20;;;;;;;9.11;30.86;100376.03;4981121;28;20085;-76
2023/04/08 00:31:11;;;;;;;7.73;3.40;;;;;;;9.02;30.92;100373.31;4965695;28;20053;-74
2023/04/08 00:33:37;;;;;;;9.70;3.40;;;;;;;9.10;31.05;100369.03;4981131;28;20049;-74
2023/04/08 00:36:03;;;;;;;10.10;3.37;;;;;;;8.98;31.14;100377.22;4984122;28;20045;-76
2023/04/08 00:38:29;;;;;;;9.77;3.63;;;;;;;8.83;31.68;100373.19;4987372;28;20148;-73
2023/04/08 00:40:57;;;;;;;7.50;3.50;;;;;;;8.86;31.50;100379.06;5020094;28;20111;-74
2023/04/08 00:43:23;;;;;;;6.97;3.47;;;;;;;9.00;31.22;100375.25;5016649;28;20060;-72
2023/04/08 00:45:50;;;;;;;10.83;3.80;;;;;;;8.90;31.62;100375.22;4984242;28;20496;-74
2023/04/08 00:48:15;;;;;;;16.03;3.73;;;;;;;8.92;31.28;100375.91;5000084;28;20049;-74
2023/04/08 00:50:43;;;;;;;9.57;3.50;;;;;;;9.00;31.76;100384.06;4959994;28;20057;-74
2023/04/08 00:53:09;;;;;;;9.67;3.13;;;;;;;8.92;31.52;100375.91;5000509;28;20057;-74
2023/04/08 00:55:35;;;;;;;10.33;3.57;;;;;;;8.90;31.58;100377.03;4983926;28;20041;-73
2023/04/08 00:58:02;;;;;;;7.57;3.17;;;;;;;8.90;31.74;100383.16;4999960;28;20167;-73
2023/04/08 01:00:29;;;;;;;7.80;3.60;;;;;;;9.08;31.52;100380.75;5016573;28;20222;-72
2023/04/08 01:02:59;;;;;;;5.93;3.33;;;;;;;8.81;31.67;100375.97;4983864;28;20089;-73
2023/04/08 01:05:33;;;;;;;8.93;3.30;;;;;;;9.22;31.66;100381.25;4983475;28;20495;-73
2023/04/08 01:08:01;;;;;;;5.90;3.20;;;;;;;9.11;31.67;100384.00;4983817;28;20042;-74
2023/04/08 01:10:33;;;;;;;10.00;3.33;;;;;;;9.19;31.96;100380.69;4983950;28;20079;-73
2023/04/08 01:13:03;;;;;;;8.67;3.47;;;;;;;9.15;31.97;100379.28;4983956;28;20199;-74
2023/04/08 01:15:30;;;;;;;11.93;3.80;;;;;;;8.82;32.24;100374.16;5000923;28;20060;-73
2023/04/08 01:17:58;;;;;;;11.40;3.20;;;;;;;8.98;32.27;100385.16;5001215;28;20061;-73
2023/04/08 01:20:25;;;;;;;8.67;3.50;;;;;;;8.93;32.36;100382.06;5000821;28;20048;-73
2023/04/08 01:22:54;;;;;;;10.30;3.87;;;;;;;8.97;32.33;100371.06;5000994;28;20049;-73
2023/04/08 01:25:25;;;;;;;11.40;3.93;;;;;;;8.95;32.50;100383.59;5017219;28;20139;-74
2023/04/08 01:27:55;;;;;;;10.40;3.40;;;;;;;8.84;32.62;100386.31;4984951;28;20395;-73
2023/04/08 01:30:24;;;;;;;16.13;3.97;;;;;;;8.91;32.66;100387.47;4984639;28;20061;-72
2023/04/08 01:32:53;;;;;;;9.43;3.30;;;;;;;8.78;32.97;100381.53;4984632;28;20073;-73
2023/04/08 01:35:21;;;;;;;10.00;3.50;;;;;;;8.41;33.13;100367.88;5000889;28;20041;-73
2023/04/08 01:37:51;;;;;;;7.77;3.63;;;;;;;8.69;33.06;100379.66;4984789;28;20052;-73
2023/04/08 01:40:18;;;;;;;6.93;3.80;;;;;;;8.69;33.00;100387.59;5001128;28;20041;-72
2023/04/08 01:42:51;;;;;;;9.80;3.73;;;;;;;8.75;32.91;100388.91;5019463;28;20053;-72
2023/04/08 01:45:17;;;;;;;7.93;3.43;;;;;;;8.56;33.15;100381.66;5019705;28;20045;-73
2023/04/08 01:47:46;;;;;;;11.37;3.80;;;;;;;8.68;33.08;100393.00;5000160;28;20073;-73
2023/04/08 01:50:16;;;;;;;9.27;3.70;;;;;;;8.78;33.12;100386.00;4968023;28;20156;-73
2023/04/08 01:52:43;;;;;;;8.47;3.80;;;;;;;8.59;33.17;100386.69;5000031;28;20046;-74
2023/04/08 01:55:11;;;;;;;12.37;4.07;;;;;;;8.39;33.13;100390.97;4968390;28;20084;-74
2023/04/08 01:57:39;;;;;;;9.97;4.00;;;;;;;8.55;33.01;100385.25;4984170;28;20180;-73
2023/04/08 02:00:08;;;;;;;7.93;3.77;;;;;;;8.62;33.29;100380.28;5016032;28;20545;-73
2023/04/08 02:02:46;;;;;;;;;;;;;;;8.94;32.92;100396.97;5016785;28;20076;-73
2023/04/08 02:05:13;;;;;;;14.57;3.87;;;;;;;8.50;33.11;100382.16;5003209;28;19924;-72
2023/04/08 02:07:40;;;;;;;10.83;4.10;;;;;;;8.72;33.15;100386.50;5001252;28;20068;-72
2023/04/08 02:10:06;;;;;;;14.60;4.47;;;;;;;8.49;33.17;100393.69;5000197;28;20037;-73
2023/04/08 02:12:33;;;;;;;10.77;4.27;;;;;;;8.66;33.22;100392.31;4999280;28;20065;-73
2023/04/08 02:15:01;;;;;;;9.90;4.60;;;;;;;8.48;33.34;100395.53;4981572;28;20480;-74
2023/04/08 02:17:36;;;;;;;9.40;4.10;;;;;;;8.73;33.47;100394.34;4997502;28;20077;-74
2023/04/08 02:20:05;;;;;;;11.43;4.90;;;;;;;8.35;33.47;100392.19;4980993;28;20400;-74
2023/04/08 02:23:01;;;;;;;9.60;4.88;;;;;;;8.86;33.52;100397.63;4981030;28;20053;-75
2023/04/08 02:25:30;;;;;;;11.30;4.77;;;;;;;8.52;33.61;100389.00;4997579;28;20136;-73
2023/04/08 02:27:59;;;;;;;7.63;4.67;;;;;;;8.58;33.70;100398.22;4997097;28;20045;-74
2023/04/08 02:30:27;;;;;;;13.30;4.90;;;;;;;8.46;33.89;100389.50;4997508;28;20045;-74
2023/04/08 02:32:55;;;;;;;15.50;5.80;;;;;;;8.44;33.92;100395.91;4981072;28;20050;-74
2023/04/08 02:35:22;;;;;;;10.03;5.53;;;;;;;8.33;34.03;100395.94;4964754;28;20038;-78
2023/04/08 02:37:49;;;;;;;11.87;5.33;;;;;;;8.21;33.94;100386.31;4981026;28;20451;-73
2023/04/08 02:40:41;;;;;;;15.13;5.17;;;;;;;8.55;34.04;100403.78;4980660;28;20048;-72
2023/04/08 02:43:07;;;;;;;14.40;5.67;;;;;;;8.12;34.21;100402.91;4992965;28;20049;-73
2023/04/08 02:45:41;;;;;;;13.20;5.33;;;;;;;8.42;34.18;100401.31;4996673;28;20070;-74
2023/04/08 02:48:08;;;;;;;11.60;6.10;;;;;;;8.23;34.20;100406.44;5012955;28;20056;-74
2023/04/08 02:50:34;;;;;;;17.70;6.10;;;;;;;8.01;34.28;100405.63;4980551;28;20064;-74
2023/04/08 02:53:00;;;;;;;10.30;5.80;;;;;;;7.95;34.51;100404.28;4980264;28;20049;-73
2023/04/08 02:55:27;;;;;;;13.07;6.23;;;;;;;7.92;34.61;100407.19;4980420;28;20046;-72
2023/04/08 02:57:52;;;;;;;13.33;6.10;;;;;;;7.92;34.42;100407.19;4980311;28;20049;-76
2023/04/08 03:00:18;;;;;;;12.80;6.43;;;;;;;7.89;34.57;100407.41;4996268;28;20112;-73
2023/04/08 03:02:44;;;;;;;12.40;5.93;;;;;;;7.81;34.92;100414.28;4996360;28;20502;-73
2023/04/08 03:05:11;;;;;;;12.07;6.27;;;;;;;7.81;34.90;100412.47;4996283;28;20450;-73
2023/04/08 03:07:37;;;;;;;16.83;6.30;;;;;;;7.81;34.77;100417.75;4996375;28;20095;-73
2023/04/08 03:10:04;;;;;;;13.43;6.17;;;;;;;7.86;34.68;100412.97;4980041;28;20092;-71
2023/04/08 03:12:30;;;;;;;15.50;6.07;;;;;;;7.81;34.82;100411.66;4979688;28;20064;-74
2023/04/08 03:14:56;;;;;;;13.73;6.60;;;;;;;7.80;34.77;100408.16;4996132;28;20045;-75
2023/04/08 03:17:21;;;;;;;29.50;6.80;;;;;;;7.83;34.88;100404.41;4979879;28;20442;-74
2023/04/08 03:19:47;;;;;;;15.00;6.30;;;;;;;7.84;34.95;100414.06;4979761;28;20045;-74
2023/04/08 03:22:13;;;;;;;11.67;6.30;;;;;;;7.79;35.19;100414.41;4996037;28;20045;-74
2023/04/08 03:24:39;;;;;;;19.87;7.57;;;;;;;7.78;35.13;100415.38;4994990;28;20108;-75
2023/04/08 03:27:05;;;;;;;11.57;6.80;;;;;;;7.82;35.21;100413.31;4979307;28;20077;-74
2023/04/08 03:29:31;;;;;;;11.30;6.63;;;;;;;7.82;35.14;100414.19;4996002;28;20443;-74
2023/04/08 03:31:57;;;;;;;14.73;6.57;;;;;;;7.96;35.32;100418.34;4995622;28;20073;-74
2023/04/08 03:34:23;;;;;;;16.87;7.20;;;;;;;7.83;35.33;100415.84;5012567;28;20053;-75
2023/04/08 03:36:50;;;;;;;19.97;7.77;;;;;;;7.91;35.15;100423.16;4980183;28;20069;-72
2023/04/08 03:39:16;;;;;;;17.87;7.20;;;;;;;7.95;35.28;100422.81;4979901;28;20472;-72
2023/04/08 03:41:44;;;;;;;16.87;6.90;;;;;;;7.85;35.44;100416.56;4995566;28;20111;-71
2023/04/08 03:44:10;;;;;;;23.37;8.30;;;;;;;7.89;35.60;100428.59;4994453;28;20057;-71
2023/04/08 03:46:36;;;;;;;16.67;7.67;;;;;;;7.96;35.36;100427.16;4946232;28;20057;-71
2023/04/08 03:49:04;;;;;;;18.07;6.97;;;;;;;7.92;35.16;100425.69;4962320;28;20229;-72
2023/04/08 03:51:29;;;;;;;20.23;7.40;;;;;;;7.95;35.71;100421.97;4978407;28;20096;-71
2023/04/08 03:53:56;;;;;;;18.10;7.17;;;;;;;7.98;35.82;100429.66;4946355;28;20111;-76
2023/04/08 03:56:23;;;;;;;17.13;7.03;;;;;;;7.99;35.47;100428.69;4978562;28;20103;-73
2023/04/08 03:58:50;;;;;;;19.73;7.07;;;;;;;8.05;35.48;100423.75;4962339;28;20520;-70
2023/04/08 04:01:15;;;;;;;18.03;7.17;;;;;;;8.11;35.74;100428.56;4978210;28;21027;-72
2023/04/08 04:03:41;;;;;;;13.57;6.93;;;;;;;8.13;35.30;100425.78;4962119;28;20057;-72
2023/04/08 04:06:07;;;;;;;15.93;7.53;;;;;;;8.22;35.29;100432.97;4961896;28;20045;-71
2023/04/08 04:08:33;;;;;;;19.63;8.40;;;;;;;8.25;35.45;100432.75;4946040;28;20140;-71
2023/04/08 04:10:59;;;;;;;17.37;7.13;;;;;;;8.26;35.25;100419.41;4977590;28;20057;-71
2023/04/08 04:13:24;;;;;;;16.77;7.47;;;;;;;8.39;35.31;100440.44;4978106;28;20135;-73
2023/04/08 04:15:50;;;;;;;17.53;7.70;;;;;;;8.43;35.05;100437.41;4974620;28;20053;-72
2023/04/08 04:18:16;;;;;;;18.70;7.23;;;;;;;8.45;35.14;100437.28;5011462;28;20959;-71
2023/04/08 04:20:42;;;;;;;15.57;6.87;;;;;;;8.53;34.90;100440.97;4978215;28;20045;-71
2023/04/08 04:23:08;;;;;;;17.70;6.97;;;;;;;8.71;34.92;100443.06;4977699;28;20046;-71
2023/04/08 04:25:34;;;;;;;20.60;8.23;;;;;;;8.69;34.95;100440.56;5009848;28;20115;-71
2023/04/08 04:28:01;;;;;;;18.03;6.97;;;;;;;8.64;35.17;100442.75;5009823;28;20472;-70
2023/04/08 04:30:27;;;;;;;15.43;6.83;;;;;;;8.77;34.88;100437.28;4979090;28;20048;-72
2023/04/08 04:32:53;;;;;;;16.10;6.70;;;;;;;8.72;34.88;100429.72;4979209;28;20050;-71
2023/04/08 04:35:19;;;;;;;14.83;6.37;;;;;;;8.83;34.90;100448.22;4978958;28;20046;-71
2023/04/08 04:37:44;;;;;;;13.13;6.20;;;;;;;8.91;34.79;100445.75;4994893;28;20046;-72
2023/04/08 04:40:10;;;;;;;18.47;7.07;;;;;;;8.97;34.74;100447.91;4995031;28;20478;-72
2023/04/08 04:42:36;;;;;;;15.03;6.77;;;;;;;9.07;34.68;100443.50;4995010;28;20050;-72
2023/04/08 04:45:02;;;;;;;10.47;5.93;;;;;;;9.11;34.85;100446.75;4994860;28;20096;-72
2023/04/08 04:47:31;;;;;;;15.33;6.60;;;;;;;9.19;34.81;100445.13;4979174;28;20038;-72
2023/04/08 04:49:57;;;;;;;21.37;5.83;;;;;;;9.25;34.67;100449.06;4995336;28;20053;-71
2023/04/08 04:52:23;;;;;;;14.20;5.87;;;;;;;9.37;34.45;100446.22;4995078;28;20053;-72
2023/04/08 04:54:48;;;;;;;17.33;6.43;;;;;;;9.41;34.32;100447.63;4979011;28;20475;-72
2023/04/08 04:57:15;;;;;;;19.63;6.90;;;;;;;9.47;34.26;100447.09;4993687;28;20093;-71
2023/04/08 04:59:41;;;;;;;17.90;6.40;;;;;;;9.54;34.21;100440.31;4977880;28;20176;-71
2023/04/08 05:02:06;;;;;;;19.45;6.72;;;;;;;9.69;34.11;100454.91;4977615;28;20463;-71
2023/04/08 05:04:32;;;;;;;20.93;6.23;;;;;;;9.75;33.95;100454.38;4977640;28;20065;-72
2023/04/08 05:06:58;;;;;;;18.27;6.50;;;;;;;9.99;33.72;100456.69;4977345;28;20508;-70
2023/04/08 05:09:24;;;;;;;15.55;5.90;;;;;;;9.93;33.91;100463.38;4993809;28;20065;-72
2023/04/08 05:11:50;;;;;;;14.98;6.15;;;;;;;10.04;33.62;100460.63;4993194;28;20088;-71
2023/04/08 05:14:15;;;;;;;13.27;6.20;;;;;;;10.12;33.43;100459.97;5009862;28;20116;-72
2023/04/08 05:16:41;;;;;;;15.00;5.80;;;;;;;10.23;33.33;100465.19;4994631;28;20133;-69
2023/04/08 05:19:07;;;;;;;15.73;5.88;;;;;;;10.33;33.16;100463.41;4978268;28;20100;-69
2023/04/08 05:21:32;;;;;;;16.55;5.93;;;;;;;10.36;33.10;100467.59;4978189;28;20085;-71
2023/04/08 05:23:58;;;;;;;14.57;6.30;;;;;;;10.40;33.18;100469.84;4981122;28;20053;-69
2023/04/08 05:26:25;;;;;;;13.32;5.88;;;;;;;10.48;32.82;100474.47;4981239;28;20056;-71
2023/04/08 05:28:51;;;;;;;14.95;5.53;;;;;;;10.65;33.12;100476.44;4981910;28;20111;-71
2023/04/08 05:31:17;;;;;;;14.38;5.75;;;;;;;10.78;32.93;100479.69;4998168;28;20040;-71
2023/04/08 05:33:43;;;;;;;15.80;5.65;;;;;;;10.75;32.93;100477.31;4981866;28;20099;-70
2023/04/08 05:36:10;;;;;;;13.85;5.97;;;;;;;10.90;32.86;100470.59;4997018;28;20092;-71
2023/04/08 05:38:36;;;;;;;23.98;6.85;;;;;;;10.97;32.64;100490.31;4997430;28;20050;-72
2023/04/08 05:41:02;;;;;;;15.10;6.28;;;;;;;10.96;32.56;100491.31;4982685;28;20053;-71
2023/04/08 05:43:28;;;;;;;21.88;6.95;;;;;;;11.07;32.46;100478.69;4998560;28;20064;-70
2023/04/08 05:45:54;;;;;;;20.48;6.75;;;;;;;11.23;32.41;100486.09;4982481;28;20049;-72
2023/04/08 05:48:20;;;;;;;13.98;6.72;;;;;;;11.31;32.62;100486.25;4997119;28;20069;-73
2023/04/08 05:50:47;;;;;;;14.35;5.88;;;;;;;11.40;32.57;100488.91;4998215;28;20050;-72
2023/04/08 05:53:13;;;;;;;20.88;6.43;;;;;;;11.60;32.47;100484.38;5012509;28;20119;-73
2023/04/08 05:55:41;;;;;;;18.23;6.50;;;;;;;11.74;31.78;100484.78;4998454;28;20111;-74
2023/04/08 05:58:06;;;;;;;15.20;6.70;;;;;;;11.78;31.49;100482.66;4998435;28;20049;-73
2023/04/08 06:00:32;;;;;;;15.27;6.22;;;;;;;11.95;31.27;100489.88;4982166;28;20385;-72
2023/04/08 06:02:58;;;;;;;23.67;5.43;;;;;;;12.07;31.36;100486.03;4982579;28;20037;-74
2023/04/08 06:05:24;;;;;;;24.42;6.63;;;;;;;12.18;31.02;100471.72;4998436;28;20077;-73
2023/04/08 06:07:50;;;;;;;17.60;6.57;;;;;;;12.30;30.82;100481.19;4979344;28;20049;-74
2023/04/08 06:10:16;;;;;;;22.13;6.85;;;;;;;12.45;30.48;100479.69;5016063;28;20383;-74
2023/04/08 06:12:42;;;;;;;20.95;5.88;;;;;;;12.61;30.36;100491.34;5004559;28;20109;-73
2023/04/08 06:15:08;;;;;;;17.92;5.88;;;;;;;12.78;30.17;100487.03;5000832;28;20106;-71
2023/04/08 06:17:38;;;;;;;16.67;5.78;;;;;;;13.21;30.11;100487.97;4999838;28;20438;-74
2023/04/08 06:20:05;;;;;;;17.75;5.90;;;;;;;13.19;29.69;100481.94;5049504;28;20053;-75
2023/04/08 06:22:32;;;;;;;14.05;5.85;;;;;;;13.22;29.45;100492.31;5016912;28;20510;-73
2023/04/08 06:24:57;;;;;;;15.88;5.93;;;;;;;13.40;29.66;100489.63;5016934;28;20045;-74
2023/04/08 06:27:23;;;;;;;16.50;6.10;;;;;;;13.55;29.13;100486.25;5000270;28;20045;-71
2023/04/08 06:29:50;;;;;;;14.73;6.30;;;;;;;13.77;28.89;100492.03;5016646;28;20045;-75
2023/04/08 06:32:18;;;;;;;14.55;6.28;;;;;;;13.90;28.52;100489.81;5016944;28;20045;-73
2023/04/08 06:34:47;;;;;;;18.90;6.25;;;;;;;14.46;28.42;100488.25;5011557;28;20079;-73
2023/04/08 06:37:13;;;;;;;21.42;7.32;;;;;;;14.37;28.07;100488.38;4983688;28;20053;-76
2023/04/08 06:39:39;;;;;;;21.83;6.70;;;;;;;14.59;27.85;100487.78;5016623;28;20052;-73
2023/04/08 06:42:05;;;;;;;16.35;6.72;;;;;;;14.77;27.75;100494.69;4998379;28;20037;-73
2023/04/08 06:44:43;;;;;;;16.25;6.22;;;;;;;14.94;27.50;100492.88;5023847;28;20490;-73
2023/04/08 06:47:09;;;;;;;22.08;7.32;;;;;;;15.12;27.17;100493.56;5001604;28;20045;-76
2023/04/08 06:49:36;;;;;;;20.48;6.22;;;;;;;15.38;26.89;100493.41;4984279;28;20042;-76
2023/04/08 06:52:02;;;;;;;20.73;6.55;;;;;;;15.46;26.79;100493.41;4963349;28;20133;-76
2023/04/08 06:54:28;;;;;;;24.23;6.72;;;;;;;15.60;26.49;100493.59;4995788;28;20248;-70
2023/04/08 06:56:54;;;;;;;25.02;7.22;;;;;;;15.75;26.43;100488.34;4947502;28;20168;-71
2023/04/08 06:59:20;;;;;;;19.98;7.63;;;;;;;15.91;26.24;100486.50;4979385;28;20042;-70
2023/04/08 07:01:46;;;;;;;22.60;6.93;;;;;;;16.11;25.85;100492.28;4995423;28;20046;-69
2023/04/08 07:04:11;;;;;;;17.38;8.13;;;;;;;16.32;25.62;100489.84;4995278;28;20188;-69
2023/04/08 07:06:37;;;;;;;39.85;9.00;;;;;;;16.51;25.64;100484.13;4956405;28;20051;-69
2023/04/08 07:09:05;;;;;;;34.50;10.70;;;;;;;16.68;25.10;100491.88;4956500;28;20085;-70
2023/04/08 07:11:31;;;;;;;32.53;10.00;;;;;;;16.94;24.87;100483.53;4940971;28;20520;-72
2023/04/08 07:13:57;;;;;;;30.63;11.80;;;;;;;17.20;24.74;100491.22;4924692;28;20051;-70
2023/04/08 07:16:23;;;;;;;26.42;11.48;;;;;;;17.45;24.47;100488.16;4956352;28;20209;-70
2023/04/08 07:18:50;;;;;;;36.85;11.88;;;;;;;17.63;24.49;100486.00;4956173;28;20141;-71
2023/04/08 07:21:16;;;;;;;34.30;14.73;;;;;;;17.78;24.10;100486.00;4956170;28;20055;-71
2023/04/08 07:23:42;;;;;;;32.97;13.50;;;;;;;17.98;23.90;100484.44;4940550;28;20129;-70
2023/04/08 07:26:08;;;;;;;35.70;14.30;;;;;;;18.26;23.66;100483.63;4956075;28;20149;-71
2023/04/08 07:28:34;;;;;;;36.90;14.95;;;;;;;18.67;23.21;100480.41;4958763;28;20065;-72
2023/04/08 07:31:13;;;;;;;37.42;17.48;;;;;;;19.43;22.70;100478.75;4975973;28;20100;-70
2023/04/08 07:33:39;;;;;;;42.63;18.48;;;;;;;19.53;22.22;100481.94;4959542;28;20532;-70
2023/04/08 07:36:05;;;;;;;44.35;19.70;;;;;;;20.30;21.46;100485.38;4991861;28;20050;-70
2023/04/08 07:38:31;;;;;;;47.17;22.83;;;;;;;21.93;19.90;100477.59;5011384;28;20504;-71
2023/04/08 07:40:57;;;;;;;46.03;21.90;;;;;;;24.43;17.63;100480.13;4982956;28;20139;-71
2023/04/08 07:43:23;;;;;;;38.08;19.30;;;;;;;26.94;15.37;100477.38;4982790;28;20391;-70
2023/04/08 07:45:48;;;;;;;42.10;20.70;;;;;;;29.42;13.29;100476.84;4998131;28;20057;-71
2023/04/08 07:48:14;;;;;;;56.83;18.75;;;;;;;31.56;11.69;100483.66;4976215;28;20034;-71
2023/04/08 07:50:41;;;;;;;35.80;17.80;;;;;;;33.29;10.22;100490.00;4982144;28;20424;-71
2023/04/08 07:53:07;;;;;;;29.67;15.10;;;;;;;34.49;9.35;100474.28;5006002;28;20052;-72
2023/04/08 07:55:33;;;;;;;32.95;14.35;;;;;;;35.39;8.78;100486.88;5051388;28;20459;-72
2023/04/08 07:58:00;;;;;;;29.02;12.40;;;;;;;35.94;8.23;100478.75;5018095;28;20048;-73
2023/04/08 08:00:30;;;;;;;27.77;11.52;;;;;;;36.69;8.19;100485.59;5001895;28;20045;-72
2023/04/08 08:02:58;;;;;;;35.10;10.27;;;;;;;37.23;7.54;100478.00;5002376;28;20068;-72
2023/04/08 08:05:29;;;;;;;20.00;8.75;;;;;;;37.53;7.35;100479.22;5051926;28;20106;-74
2023/04/08 08:07:55;;;;;;;21.20;8.40;;;;;;;37.75;7.36;100473.66;5034125;28;20425;-73
2023/04/08 08:10:21;;;;;;;19.30;7.10;;;;;;;38.65;6.70;100467.56;5001203;28;20040;-73
2023/04/08 08:12:47;;;;;;;23.20;7.93;;;;;;;39.78;5.93;100479.22;5018050;28;20052;-74
2023/04/08 08:15:13;;;;;;;15.90;6.22;;;;;;;40.11;5.89;100463.56;5002140;28;20052;-74
2023/04/08 08:17:39;;;;;;;19.98;7.05;;;;;;;40.88;5.62;100466.81;5002192;28;20135;-73
2023/04/08 08:20:06;;;;;;;19.75;6.07;;;;;;;40.16;5.69;100466.19;5018372;28;20187;-76
2023/04/08 08:22:31;;;;;;;24.30;5.78;;;;;;;39.45;5.89;100453.09;5018379;28;20059;-74
2023/04/08 08:24:58;;;;;;;18.33;6.10;;;;;;;40.19;5.90;100457.16;5001747;28;20057;-74
2023/04/08 08:27:24;;;;;;;19.67;6.03;;;;;;;40.97;5.33;100445.25;5051012;28;20037;-73
2023/04/08 08:29:50;;;;;;;15.75;5.38;;;;;;;41.75;5.07;100460.13;5002156;28;20044;-74
2023/04/08 08:32:16;;;;;;;28.55;5.43;;;;;;;42.05;4.70;100447.66;5035155;28;20475;-73
2023/04/08 08:34:41;;;;;;;23.10;5.35;;;;;;;42.58;4.58;100450.25;5002045;28;20048;-73
2023/04/08 08:37:07;;;;;;;12.52;4.28;;;;;;;43.08;4.35;100430.22;5001905;28;20455;-74
2023/04/08 08:39:33;;;;;;;8.75;3.92;;;;;;;43.44;4.02;100443.28;5001934;28;20099;-71
2023/04/08 08:41:59;;;;;;;14.00;4.78;;;;;;;43.57;4.05;100442.88;5034325;28;20037;-70
2023/04/08 08:44:25;;;;;;;9.63;3.55;;;;;;;42.68;3.92;100429.38;5001594;28;20052;-71
2023/04/08 08:46:51;;;;;;;7.72;3.70;;;;;;;39.95;4.72;100448.59;5001646;28;20079;-71
2023/04/08 08:49:17;;;;;;;12.15;3.80;;;;;;;36.81;6.43;100416.66;5001501;28;20037;-71
2023/04/08 08:51:47;;;;;;;11.43;3.65;;;;;;;38.21;5.87;100421.34;5034259;28;20064;-70
2023/04/08 08:54:14;;;;;;;11.82;3.88;;;;;;;39.41;5.44;100416.78;5001593;28;20489;-70
2023/04/08 08:56:42;;;;;;;8.15;3.25;;;;;;;40.38;4.94;100424.16;5008462;28;20483;-71
2023/04/08 08:59:08;;;;;;;9.63;3.50;;;;;;;41.60;4.79;100424.53;4985901;28;20041;-71
2023/04/08 09:01:36;;;;;;;6.05;3.15;;;;;;;42.60;4.26;100425.56;4989330;28;20107;-72
2023/04/08 09:04:18;;;;;;;11.88;3.80;;;;;;;42.40;4.08;100422.91;5005038;28;20044;-71
2023/04/08 09:06:46;;;;;;;14.82;3.53;;;;;;;42.43;4.33;100433.38;5004913;28;20123;-71
2023/04/08 09:09:12;;;;;;;15.95;3.22;;;;;;;42.75;4.10;100413.66;5054281;28;20479;-71
2023/04/08 09:11:42;;;;;;;13.15;3.20;;;;;;;43.20;3.96;100428.25;5037658;28;20052;-71
2023/04/08 09:14:22;;;;;;;13.23;3.45;;;;;;;42.82;4.00;100436.28;5021448;28;20087;-71
2023/04/08 09:16:48;;;;;;;8.35;4.05;;;;;;;42.36;3.80;100430.38;5004762;28;20102;-71
2023/04/08 09:19:15;;;;;;;12.32;3.92;;;;;;;42.50;3.92;100430.81;5021277;28;20487;-71
2023/04/08 09:21:42;;;;;;;7.88;3.90;;;;;;;42.92;3.89;100426.53;5004408;28;20094;-71
2023/04/08 09:24:10;;;;;;;9.43;3.47;;;;;;;43.19;4.03;100417.41;5005055;28;20144;-74
2023/04/08 09:26:40;;;;;;;12.15;3.80;;;;;;;43.40;4.04;100426.38;5037524;28;20051;-74
2023/04/08 09:29:08;;;;;;;5.57;3.80;;;;;;;43.28;4.03;100418.06;5005517;28;20044;-74
2023/04/08 09:31:41;;;;;;;14.40;3.55;;;;;;;44.27;3.64;100413.16;5002294;28;20566;-73
2023/04/08 09:34:12;;;;;;;8.02;3.35;;;;;;;45.38;3.04;100416.03;4982527;28;20038;-73
2023/04/08 09:36:38;;;;;;;11.88;3.00;;;;;;;45.37;3.06;100412.41;4986797;28;20041;-74
2023/04/08 09:39:04;;;;;;;7.35;3.28;;;;;;;44.26;3.17;100415.13;5036348;28;20041;-73
2023/04/08 09:41:33;;;;;;;9.25;3.10;;;;;;;42.52;3.90;100412.53;5003100;28;20423;-71
2023/04/08 09:44:06;;;;;;;12.55;3.20;;;;;;;41.07;4.45;100405.78;5019600;28;20044;-73
2023/04/08 09:46:41;;;;;;;8.68;3.30;;;;;;;41.93;4.27;100404.97;5000509;28;20079;-70
2023/04/08 09:49:16;;;;;;;4.55;2.60;;;;;;;43.01;3.90;100410.47;5016184;28;20136;-71
2023/04/08 09:52:01;;;;;;;8.73;3.10;;;;;;;42.99;3.57;100399.63;5014824;28;20140;-71
2023/04/08 09:54:57;;;;;;;8.88;3.30;;;;;;;43.36;3.55;100396.69;5000335;28;20168;-71
2023/04/08 09:57:49;;;;;;;5.57;2.50;;;;;;;42.45;3.65;100398.34;5018482;28;20042;-70
2023/04/08 10:00:22;;;;;;;9.05;2.95;;;;;;;37.91;5.29;100391.69;5017340;28;20578;-72
2023/04/08 10:02:58;;;;;;;8.98;3.45;;;;;;;38.87;5.17;100381.31;4999392;28;20037;-70
2023/04/08 10:05:24;;;;;;;7.53;3.30;;;;;;;38.11;5.31;100402.22;5016620;28;20056;-70
2023/04/08 10:07:52;;;;;;;7.85;3.25;;;;;;;35.99;6.76;100385.44;5015629;28;20492;-70
2023/04/08 10:10:20;;;;;;;10.15;3.47;;;;;;;34.61;7.52;100389.16;4998877;28;20464;-75
2023/04/08 10:12:47;;;;;;;18.67;3.53;;;;;;;34.08;8.09;100399.47;4997678;28;20049;-70
2023/04/08 10:15:32;;;;;;;7.20;4.60;;;;;;;31.73;9.46;100390.81;4998106;28;20092;-71
2023/04/08 10:18:04;;;;;;;10.77;4.47;;;;;;;32.07;9.73;100378.09;4998932;28;20073;-72
2023/04/08 10:20:36;;;;;;;8.60;4.10;;;;;;;34.93;8.28;100382.88;4998176;28;20099;-73
2023/04/08 10:23:08;;;;;;;8.05;3.83;;;;;;;37.47;6.85;100385.38;4982121;28;20140;-73
2023/04/08 10:25:34;;;;;;;10.18;4.40;;;;;;;39.24;6.07;100388.19;5014260;28;20064;-72
2023/04/08 10:28:02;;;;;;;10.23;3.50;;;;;;;40.97;5.40;100402.63;4982326;28;20045;-75
2023/04/08 10:30:30;;;;;;;20.75;4.25;;;;;;;39.23;5.79;100369.88;4998792;28;20060;-74
2023/04/08 10:33:02;;;;;;;9.55;3.78;;;;;;;40.71;5.09;100391.69;4985784;28;20056;-71
2023/04/08 10:35:34;;;;;;;11.82;3.83;;;;;;;41.33;4.53;100392.47;4998052;28;20430;-72
2023/04/08 10:38:01;;;;;;;6.60;3.83;;;;;;;41.32;4.84;100384.44;5013178;28;20059;-74
2023/04/08 10:40:27;;;;;;;11.40;4.00;;;;;;;39.92;5.15;100372.13;5029415;28;20533;-73
2023/04/08 10:42:59;;;;;;;7.63;3.65;;;;;;;40.29;5.07;100366.91;4997886;28;20487;-72
2023/04/08 10:45:25;;;;;;;6.25;3.90;;;;;;;40.48;5.19;100364.47;4982092;28;20057;-72
2023/04/08 10:47:53;;;;;;;8.75;4.53;;;;;;;41.09;4.93;100369.28;5006092;28;20399;-71
2023/04/08 10:50:22;;;;;;;9.30;4.00;;;;;;;41.19;4.87;100377.19;4981216;28;20044;-72
2023/04/08 10:52:50;;;;;;;7.85;3.85;;;;;;;40.98;4.85;100362.47;5013990;28;20041;-71
2023/04/08 10:55:24;;;;;;;8.60;3.83;;;;;;;40.26;5.03;100362.81;5021869;28;20395;-70
2023/04/08 10:57:50;;;;;;;12.88;4.63;;;;;;;39.54;5.21;100360.16;4973022;28;20044;-70
2023/04/08 11:00:32;;;;;;;10.98;4.20;;;;;;;38.66;6.15;100358.09;5003581;28;20041;-72
2023/04/08 11:03:03;;;;;;;9.55;4.00;;;;;;;38.46;6.28;100350.38;5034387;28;20037;-72
2023/04/08 11:05:30;;;;;;;11.32;3.90;;;;;;;37.31;6.66;100357.25;5000553;28;20046;-72
2023/04/08 11:07:57;;;;;;;9.90;3.40;;;;;;;37.59;6.87;100339.31;5003364;28;20450;-72
2023/04/08 11:10:23;;;;;;;15.82;3.83;;;;;;;38.46;6.31;100345.66;4978654;28;20140;-71
2023/04/08 11:12:49;;;;;;;8.93;4.15;;;;;;;39.34;5.79;100333.03;5009024;28;20140;-71
2023/04/08 11:15:15;;;;;;;10.18;4.15;;;;;;;39.01;5.99;100359.78;5012912;28;20045;-72
2023/04/08 11:17:42;;;;;;;6.40;3.70;;;;;;;34.78;7.58;100334.22;5014589;28;20041;-72
2023/04/08 11:20:08;;;;;;;14.48;3.95;;;;;;;34.63;8.19;100319.84;5031201;28;20047;-71
2023/04/08 11:22:35;;;;;;;14.68;3.90;;;;;;;35.62;7.63;100333.06;4998210;28;20057;-71
2023/04/08 11:25:01;;;;;;;9.00;3.80;;;;;;;36.27;6.85;100328.97;4997700;28;20148;-71
2023/04/08 11:27:27;;;;;;;7.63;3.55;;;;;;;36.00;7.10;100322.66;5014011;28;20034;-71